Pagina principale
METAR-TAF:

METAR-TAF

Aeroporti :

Yüksekova, Turchia

latitudine: 37-33-06N, longitudine: 44-14-01E, altezza: 1950 m

Osservazione

Il bollettino è stato emesso 3 ore e 7 minuti fa, alle 12:50 UTC
Vento 5 kt da sud-ovest, variando fra sud/sud-est e ovest
Temperature 29°C
Umidità 16%
Pressione 1020 hPa
Visibilità 10 km o più
nessuna nube inferiore a 1500 m e nessun cumulonembo

METAR: LTCW 241250Z 22005KT 160V280 CAVOK 29/01 Q1020

Ora: 18:57 (15:57 UTC)

Previsione

Il bollettino è stato emesso 2 ore e 17 minuti fa, alle 13:40 UTC
Previsione valida dal 24 alle 15 UTC al 24 alle 24 UTC
Vento 9 kt da sud/sud-ovest
Visibilità 10 km o più
Poco nuvoloso ad un'altezza di 4000 ft

TAF: LTCW 241340Z 2415/2424 20009KT 9999 FEW040

Osservazioni e previsioni meteorologiche di più di 4000 aeroporti (messaggi METAR e TAF).

Le stazioni disponibili sono rappresentate dai dischi gialli e rossi sulla carta.

Puntare il mouse per vedere il nome della stazione.

Clicca sopra per visualizzare le osservazioni e previsioni meteorologiche.

Per cambiare la mappa : fare clic sui pulsanti verdi con una croce nera per ingrandire, il pulsante verde con un trattino per diminuire, o sulla freccia verde per le mappe adiacenti.


METAR-TAF: